createdAt,value
2023-03-07T00:00:32.636Z,98161.78
2023-03-07T00:03:01.366Z,98161.00
2023-03-07T00:05:30.184Z,98163.53
2023-03-07T00:07:58.822Z,98165.25
2023-03-07T00:10:28.908Z,98164.44
2023-03-07T00:12:57.863Z,98168.81
2023-03-07T00:15:26.518Z,98163.75
2023-03-07T00:17:55.119Z,98164.66
2023-03-07T00:20:23.866Z,98163.91
2023-03-07T00:22:52.469Z,98164.03
2023-03-07T00:25:21.146Z,98154.06
2023-03-07T00:27:51.139Z,98155.88
2023-03-07T00:30:19.868Z,98150.00
2023-03-07T00:32:48.451Z,98146.66
2023-03-07T00:35:17.291Z,98142.50
2023-03-07T00:37:45.868Z,98145.16
2023-03-07T00:40:15.785Z,98142.63
2023-03-07T00:42:44.592Z,98136.72
2023-03-07T00:45:14.825Z,98137.66
2023-03-07T00:47:43.654Z,98137.53
2023-03-07T00:50:14.900Z,98135.00
2023-03-07T00:52:43.525Z,98125.66
2023-03-07T00:55:12.408Z,98116.41
2023-03-07T00:57:41.861Z,98127.41
2023-03-07T01:00:12.527Z,98118.94
2023-03-07T01:02:42.593Z,98130.03
2023-03-07T01:05:11.891Z,98115.72
2023-03-07T01:07:40.694Z,98130.94
2023-03-07T01:10:10.843Z,98125.06
2023-03-07T01:12:39.516Z,98114.09
2023-03-07T01:15:09.527Z,98117.53
2023-03-07T01:17:40.967Z,98109.13
2023-03-07T01:20:12.036Z,98103.34
2023-03-07T01:22:40.984Z,98099.38
2023-03-07T01:25:11.996Z,98103.75
2023-03-07T01:27:41.434Z,98089.34
2023-03-07T01:30:12.401Z,98098.69
2023-03-07T01:32:42.472Z,98086.91
2023-03-07T01:35:11.754Z,98087.75
2023-03-07T01:37:40.675Z,98086.91
2023-03-07T01:40:13.007Z,98079.41
2023-03-07T01:42:42.326Z,98073.56
2023-03-07T01:46:03.213Z,98071.13
2023-03-07T01:48:33.528Z,98067.06
2023-03-07T01:51:02.165Z,98068.66
2023-03-07T01:53:31.068Z,98061.88
2023-03-07T01:55:59.826Z,98060.25
2023-03-07T01:58:28.531Z,98054.50
2023-03-07T02:00:57.243Z,98052.03
2023-03-07T02:03:39.181Z,98061.28
2023-03-07T02:06:12.400Z,98055.41
2023-03-07T02:08:43.415Z,98049.50
2023-03-07T02:11:12.779Z,98036.13
2023-03-07T02:13:41.525Z,98040.38
2023-03-07T02:16:10.479Z,98026.91
2023-03-07T02:18:46.395Z,98037.84
2023-03-07T02:21:28.155Z,98033.59
2023-03-07T02:24:01.783Z,98033.59
2023-03-07T02:26:44.041Z,98034.41
2023-03-07T02:29:14.413Z,98031.06
2023-03-07T02:31:47.102Z,98030.34
2023-03-07T02:34:24.707Z,98028.75
2023-03-07T02:37:04.933Z,98022.84
2023-03-07T02:39:35.203Z,98020.31
2023-03-07T02:42:11.967Z,98025.50
2023-03-07T02:44:59.111Z,98010.38
2023-03-07T02:47:29.998Z,98013.94
2023-03-07T02:50:00.192Z,98011.41
2023-03-07T02:52:29.876Z,98011.41
2023-03-07T02:54:59.351Z,98008.88
2023-03-07T02:57:34.197Z,98008.88
2023-03-07T03:00:06.944Z,98006.34
2023-03-07T03:02:36.275Z,98005.63
2023-03-07T03:05:05.238Z,98003.00
2023-03-07T03:07:33.930Z,98004.69
2023-03-07T03:10:04.063Z,98007.25
2023-03-07T03:12:35.761Z,97995.50
2023-03-07T03:15:05.544Z,98000.56
2023-03-07T03:17:35.171Z,98000.47
2023-03-07T03:20:07.628Z,98012.19
2023-03-07T03:22:37.741Z,97996.19
2023-03-07T03:25:10.028Z,98007.13
2023-03-07T03:27:42.338Z,97995.28
2023-03-07T03:30:14.480Z,98001.16
2023-03-07T03:32:43.791Z,97994.38
2023-03-07T03:35:15.528Z,97988.38
2023-03-07T03:37:44.868Z,97979.84
2023-03-07T03:40:17.409Z,97984.13
2023-03-07T03:42:50.920Z,97984.94
2023-03-07T03:45:20.967Z,97985.72
2023-03-07T03:47:51.154Z,97981.50
2023-03-07T03:50:20.101Z,97980.56
2023-03-07T03:52:48.884Z,97967.78
2023-03-07T03:55:17.751Z,97969.50
2023-03-07T03:57:46.421Z,97965.25
2023-03-07T04:00:21.107Z,97967.69
2023-03-07T04:02:50.362Z,97964.31
2023-03-07T04:05:20.218Z,97965.16
2023-03-07T04:07:52.279Z,97968.47
2023-03-07T04:10:21.217Z,97964.25
2023-03-07T04:12:49.834Z,97962.50
2023-03-07T04:15:20.030Z,97962.41
2023-03-07T04:17:48.646Z,97960.69
2023-03-07T04:20:17.866Z,97956.53
2023-03-07T04:22:48.662Z,97952.25
2023-03-07T04:25:17.702Z,97945.47
2023-03-07T04:27:46.272Z,97941.19
2023-03-07T04:30:15.299Z,97940.28
2023-03-07T04:32:45.357Z,97945.38
2023-03-07T04:35:14.057Z,97939.47
2023-03-07T04:37:42.760Z,97933.59
2023-03-07T04:40:13.283Z,97938.66
2023-03-07T04:42:41.966Z,97929.44
2023-03-07T04:45:13.317Z,97937.03
2023-03-07T04:47:42.013Z,97933.59
2023-03-07T04:50:12.928Z,97931.06
2023-03-07T04:52:44.029Z,97926.78
2023-03-07T04:55:12.958Z,97927.63
2023-03-07T04:57:41.601Z,97927.63
2023-03-07T05:00:12.148Z,97920.00
2023-03-07T05:02:41.423Z,97920.00
2023-03-07T05:05:11.945Z,97914.81
2023-03-07T05:07:40.758Z,97921.59
2023-03-07T05:10:11.638Z,97917.25
2023-03-07T05:12:40.331Z,97919.78
2023-03-07T05:15:11.212Z,97921.41
2023-03-07T05:17:40.841Z,97918.88
2023-03-07T05:20:13.178Z,97910.34
2023-03-07T05:22:42.970Z,97916.34
2023-03-07T05:25:12.254Z,97911.28
2023-03-07T05:27:41.931Z,97909.53
2023-03-07T05:30:13.694Z,97906.19
2023-03-07T05:32:42.496Z,97903.78
2023-03-07T05:35:15.200Z,97912.97
2023-03-07T05:37:45.295Z,97906.19
2023-03-07T05:40:15.494Z,97903.66
2023-03-07T05:42:47.939Z,97905.38
2023-03-07T05:45:17.368Z,97905.38
2023-03-07T05:47:46.207Z,97899.50
2023-03-07T05:50:21.070Z,97896.97
2023-03-07T05:52:50.209Z,97898.72
2023-03-07T05:55:19.274Z,97896.25
2023-03-07T05:57:47.898Z,97894.66
2023-03-07T06:00:17.672Z,97893.03
2023-03-07T06:02:54.473Z,97898.00
2023-03-07T06:05:25.547Z,97892.22
2023-03-07T06:07:54.689Z,97890.50
2023-03-07T06:10:23.489Z,97885.31
2023-03-07T06:12:52.713Z,97881.03
2023-03-07T06:15:24.490Z,97881.03
2023-03-07T06:17:57.858Z,97892.00
2023-03-07T06:20:28.402Z,97880.13
2023-03-07T06:22:57.530Z,97878.50
2023-03-07T06:25:26.292Z,97874.25
2023-03-07T06:27:59.678Z,97884.50
2023-03-07T06:30:30.400Z,97886.13
2023-03-07T06:32:59.018Z,97891.19
2023-03-07T06:35:29.092Z,97897.88
2023-03-07T06:37:57.793Z,97892.81
2023-03-07T06:40:26.623Z,97896.97
2023-03-07T06:42:55.368Z,97899.50
2023-03-07T06:45:23.983Z,97899.50
2023-03-07T06:47:52.960Z,97896.06
2023-03-07T06:50:33.458Z,97896.75
2023-03-07T06:53:05.431Z,97900.91
2023-03-07T06:55:34.166Z,97894.22
2023-03-07T06:58:02.888Z,97899.28
2023-03-07T07:00:31.702Z,97894.22
2023-03-07T07:03:00.558Z,97895.13
2023-03-07T07:05:29.215Z,97890.16
2023-03-07T07:07:57.809Z,97905.38
2023-03-07T07:10:28.028Z,97906.31
2023-03-07T07:12:58.084Z,97898.72
2023-03-07T07:15:28.636Z,97903.78
2023-03-07T07:17:57.288Z,97899.50
2023-03-07T07:20:26.398Z,97903.66
2023-03-07T07:22:55.619Z,97905.25
2023-03-07T07:25:24.327Z,97901.81
2023-03-07T07:27:54.627Z,97899.28
2023-03-07T07:30:23.976Z,97903.44
2023-03-07T07:32:52.957Z,97904.25
2023-03-07T07:35:23.645Z,97905.97
2023-03-07T07:37:52.856Z,97902.53
2023-03-07T07:40:22.382Z,97907.59
2023-03-07T07:42:54.470Z,97896.53
2023-03-07T07:45:40.210Z,97902.31
2023-03-07T07:48:11.030Z,97907.28
2023-03-07T07:50:39.732Z,97913.13
2023-03-07T07:53:08.568Z,97906.25
2023-03-07T07:55:37.414Z,97911.31
2023-03-07T07:58:06.408Z,97909.56
2023-03-07T08:00:35.321Z,97899.44
2023-03-07T08:03:05.390Z,97906.97
2023-03-07T08:05:34.161Z,97907.66
2023-03-07T08:08:02.868Z,97905.91
2023-03-07T08:10:31.519Z,97899.13
2023-03-07T08:13:00.176Z,97886.44
2023-03-07T08:15:28.886Z,97895.69
2023-03-07T08:17:57.521Z,97889.66
2023-03-07T08:20:27.598Z,97890.50
2023-03-07T08:22:56.421Z,97881.16
2023-03-07T08:25:26.842Z,97881.88
2023-03-07T08:27:56.600Z,97880.97
2023-03-07T08:30:27.745Z,97882.59
2023-03-07T08:32:57.758Z,97882.34
2023-03-07T08:35:33.306Z,97875.47
2023-03-07T08:38:02.327Z,97888.81
2023-03-07T08:40:32.274Z,97881.94
2023-03-07T08:43:01.475Z,97875.00
2023-03-07T08:45:30.142Z,97868.09
2023-03-07T08:48:06.668Z,97870.53
2023-03-07T08:50:36.802Z,97877.22
2023-03-07T08:53:05.513Z,97866.97
2023-03-07T08:55:36.608Z,97864.31
2023-03-07T08:58:05.269Z,97863.28
2023-03-07T09:00:33.961Z,97868.13
2023-03-07T09:03:02.662Z,97862.94
2023-03-07T09:05:31.605Z,97866.97
2023-03-07T09:08:01.920Z,97867.69
2023-03-07T09:10:30.792Z,97870.91
2023-03-07T09:12:59.356Z,97860.56
2023-03-07T09:15:28.268Z,97858.81
2023-03-07T09:17:56.979Z,97859.53
2023-03-07T09:20:25.943Z,97860.22
2023-03-07T09:22:57.645Z,97854.09
2023-03-07T09:25:27.757Z,97855.63
2023-03-07T09:27:56.381Z,97855.50
2023-03-07T09:30:28.230Z,97848.56
2023-03-07T09:32:57.254Z,97852.59
2023-03-07T09:35:26.223Z,97853.44
2023-03-07T09:37:54.925Z,97850.78
2023-03-07T09:40:28.374Z,97843.97
2023-03-07T09:43:09.288Z,97848.13
2023-03-07T09:45:58.935Z,97844.56
2023-03-07T09:48:56.829Z,97834.28
2023-03-07T09:51:28.244Z,97831.63
2023-03-07T09:54:01.576Z,97833.13
2023-03-07T09:56:37.493Z,97834.50
2023-03-07T09:59:22.613Z,97827.59
2023-03-07T10:01:58.918Z,97819.75
2023-03-07T10:04:35.296Z,97806.69
2023-03-07T10:07:06.382Z,97811.44
2023-03-07T10:09:35.300Z,97818.59
2023-03-07T10:12:24.089Z,97809.81
2023-03-07T10:15:10.528Z,97801.97
2023-03-07T10:18:03.697Z,97799.53
2023-03-07T10:20:42.588Z,97801.25
2023-03-07T10:23:31.163Z,97801.25
2023-03-07T10:26:09.864Z,97798.84
2023-03-07T10:28:43.191Z,97792.97
2023-03-07T10:31:23.442Z,97785.44
2023-03-07T10:33:55.057Z,97782.22
2023-03-07T10:36:37.037Z,97773.81
2023-03-07T10:39:19.818Z,97776.34
2023-03-07T10:41:48.431Z,97779.81
2023-03-07T10:44:22.234Z,97767.22
2023-03-07T10:46:57.096Z,97766.53
2023-03-07T10:49:30.255Z,97768.28
2023-03-07T10:52:03.815Z,97766.66
2023-03-07T10:54:35.563Z,97769.19
2023-03-07T10:57:10.849Z,97770.94
2023-03-07T10:59:44.887Z,97766.66
2023-03-07T11:02:33.147Z,97757.53
2023-03-07T11:05:03.777Z,97760.88
2023-03-07T11:07:35.289Z,97750.81
2023-03-07T11:10:26.403Z,97754.31
2023-03-07T11:12:58.032Z,97744.16
2023-03-07T11:15:28.204Z,97739.06
2023-03-07T11:17:56.871Z,97739.06
2023-03-07T11:20:30.636Z,97746.56
2023-03-07T11:23:23.396Z,97739.88
2023-03-07T11:25:54.163Z,97732.38
2023-03-07T11:28:33.353Z,97726.47
2023-03-07T11:31:14.996Z,97734.09
2023-03-07T11:33:59.583Z,97728.22
2023-03-07T11:36:34.147Z,97718.84
2023-03-07T11:39:08.203Z,97721.38
2023-03-07T11:41:38.895Z,97718.84
2023-03-07T11:44:23.440Z,97719.56
2023-03-07T11:47:08.426Z,97715.28
2023-03-07T11:49:46.800Z,97721.19
2023-03-07T11:52:36.175Z,97712.59
2023-03-07T11:55:22.508Z,97722.78
2023-03-07T11:58:07.159Z,97717.59
2023-03-07T12:00:50.127Z,97703.16
2023-03-07T12:04:03.141Z,97716.66
2023-03-07T12:06:40.749Z,97700.63
2023-03-07T12:09:25.032Z,97695.41
2023-03-07T12:12:20.567Z,97698.09
2023-03-07T12:15:00.161Z,97695.53
2023-03-07T12:17:45.152Z,97697.16
2023-03-07T12:20:32.537Z,97690.47
2023-03-07T12:23:16.586Z,97681.81
2023-03-07T12:25:48.573Z,97682.59
2023-03-07T12:28:26.654Z,97676.59
2023-03-07T12:31:07.154Z,97684.09
2023-03-07T12:33:54.231Z,97683.28
2023-03-07T12:36:35.255Z,97673.94
2023-03-07T12:39:18.452Z,97665.66
2023-03-07T12:41:59.858Z,97663.09
2023-03-07T12:44:40.603Z,97660.31
2023-03-07T12:47:18.953Z,97660.31
2023-03-07T12:49:55.253Z,97657.66
2023-03-07T12:52:36.220Z,97655.13
2023-03-07T12:55:18.234Z,97653.38
2023-03-07T12:57:57.420Z,97653.28
2023-03-07T13:00:27.235Z,97652.31
2023-03-07T13:03:02.607Z,97645.41
2023-03-07T13:05:38.444Z,97647.03
2023-03-07T13:08:09.608Z,97648.63
2023-03-07T13:10:38.568Z,97639.28
2023-03-07T13:13:58.493Z,97642.63
2023-03-07T13:16:40.188Z,97650.25
2023-03-07T13:19:53.485Z,97636.88
2023-03-07T13:23:03.772Z,97641.00
2023-03-07T13:26:13.307Z,97632.59
2023-03-07T13:28:53.159Z,97633.38
2023-03-07T13:31:46.165Z,97630.72
2023-03-07T13:34:52.962Z,97619.75
2023-03-07T13:37:58.194Z,97624.84
2023-03-07T13:40:50.108Z,97629.91
2023-03-07T13:43:57.920Z,97622.28
2023-03-07T13:46:51.880Z,97632.47
2023-03-07T13:49:45.033Z,97626.59
2023-03-07T13:52:54.154Z,97635.78
2023-03-07T13:55:41.145Z,97626.47
2023-03-07T13:58:35.579Z,97632.47
2023-03-07T14:01:14.046Z,97644.25
2023-03-07T14:03:49.532Z,97628.06
2023-03-07T14:06:22.310Z,97632.22
2023-03-07T14:08:52.455Z,97632.34
2023-03-07T14:11:30.806Z,97634.75
2023-03-07T14:14:30.718Z,97634.75
2023-03-07T14:17:19.018Z,97629.66
2023-03-07T14:20:09.210Z,97640.53
2023-03-07T14:22:54.252Z,97634.66
2023-03-07T14:25:25.319Z,97635.44
2023-03-07T14:27:58.184Z,97639.59
2023-03-07T14:30:30.287Z,97637.06
2023-03-07T14:33:01.749Z,97642.94
2023-03-07T14:35:39.911Z,97637.06
2023-03-07T14:38:16.414Z,97641.31
2023-03-07T14:41:13.086Z,97645.47
2023-03-07T14:43:58.465Z,97652.31
2023-03-07T14:46:36.457Z,97658.31
2023-03-07T14:49:17.731Z,97648.94
2023-03-07T14:51:46.740Z,97657.38
2023-03-07T14:54:19.381Z,97661.53
2023-03-07T14:56:51.357Z,97660.72
2023-03-07T14:59:28.678Z,97661.53
2023-03-07T15:02:00.173Z,97660.59
2023-03-07T15:04:32.729Z,97657.25
2023-03-07T15:07:04.602Z,97656.44
2023-03-07T15:09:35.398Z,97652.97
2023-03-07T15:12:11.151Z,97660.59
2023-03-07T15:14:45.544Z,97658.06
2023-03-07T15:17:20.425Z,97662.34
2023-03-07T15:19:55.264Z,97663.97
2023-03-07T15:22:28.330Z,97667.31
2023-03-07T15:24:57.620Z,97659.69
2023-03-07T15:27:30.719Z,97664.75
2023-03-07T15:30:00.566Z,97664.75
2023-03-07T15:32:36.165Z,97665.56
2023-03-07T15:35:17.259Z,97662.22
2023-03-07T15:37:56.502Z,97653.81
2023-03-07T15:40:30.106Z,97663.00
2023-03-07T15:43:14.742Z,97661.31
2023-03-07T15:45:45.835Z,97651.13
2023-03-07T15:48:25.939Z,97659.56
2023-03-07T15:50:58.152Z,97671.47
2023-03-07T15:53:30.214Z,97661.31
2023-03-07T15:56:01.593Z,97651.13
2023-03-07T15:58:31.621Z,97660.47
2023-03-07T16:01:16.848Z,97662.88
2023-03-07T16:03:51.983Z,97664.63
2023-03-07T16:06:44.561Z,97667.19
2023-03-07T16:09:15.474Z,97651.13
2023-03-07T16:11:45.160Z,97662.88
2023-03-07T16:14:25.300Z,97646.06
2023-03-07T16:16:55.574Z,97657.00
2023-03-07T16:19:24.476Z,97661.31
2023-03-07T16:21:54.659Z,97645.22
2023-03-07T16:24:23.302Z,97646.06
2023-03-07T16:26:52.257Z,97646.06
2023-03-07T16:29:24.286Z,97657.13
2023-03-07T16:31:53.043Z,97674.94
2023-03-07T16:34:23.995Z,97661.31
2023-03-07T16:36:53.967Z,97667.44
2023-03-07T16:39:22.630Z,97666.59
2023-03-07T16:41:51.641Z,97662.34
2023-03-07T16:44:22.249Z,97660.72
2023-03-07T16:46:56.560Z,97650.56
2023-03-07T16:49:25.317Z,97649.78
2023-03-07T16:52:05.211Z,97659.09
2023-03-07T16:54:34.874Z,97641.44
2023-03-07T16:57:04.088Z,97658.31
2023-03-07T16:59:37.311Z,97655.06
2023-03-07T17:02:15.112Z,97663.63
2023-03-07T17:04:44.527Z,97667.09
2023-03-07T17:07:24.628Z,97671.34
2023-03-07T17:09:53.791Z,97674.84
2023-03-07T17:12:24.874Z,97692.75
2023-03-07T17:14:53.752Z,97696.22
2023-03-07T17:17:29.000Z,97692.84
2023-03-07T17:19:57.692Z,97691.91
2023-03-07T17:22:27.717Z,97691.91
2023-03-07T17:24:56.272Z,97691.13
2023-03-07T17:27:25.020Z,97693.66
2023-03-07T17:29:55.158Z,97694.59
2023-03-07T17:32:24.054Z,97695.50
2023-03-07T17:34:53.159Z,97691.38
2023-03-07T17:37:21.817Z,97694.72
2023-03-07T17:39:51.801Z,97701.53
2023-03-07T17:42:20.581Z,97705.66
2023-03-07T17:44:49.178Z,97695.63
2023-03-07T17:47:18.202Z,97703.38
2023-03-07T17:49:47.939Z,97705.91
2023-03-07T17:52:16.646Z,97715.41
2023-03-07T17:54:45.989Z,97715.41
2023-03-07T17:57:16.235Z,97712.84
2023-03-07T17:59:45.126Z,97712.72
2023-03-07T18:02:15.282Z,97713.53
2023-03-07T18:04:44.609Z,97710.06
2023-03-07T18:07:13.365Z,97715.16
2023-03-07T18:09:41.937Z,97717.69
2023-03-07T18:12:11.099Z,97708.31
2023-03-07T18:14:41.072Z,97720.22
2023-03-07T18:17:09.707Z,97723.69
2023-03-07T18:19:39.708Z,97718.72
2023-03-07T18:22:08.385Z,97729.69
2023-03-07T18:24:36.986Z,97733.84
2023-03-07T18:27:08.677Z,97738.81
2023-03-07T18:29:37.529Z,97740.44
2023-03-07T18:32:08.082Z,97726.94
2023-03-07T18:34:36.979Z,97727.72
2023-03-07T18:37:08.269Z,97740.44
2023-03-07T18:39:36.907Z,97745.50
2023-03-07T18:42:05.998Z,97738.69
2023-03-07T18:44:34.784Z,97736.97
2023-03-07T18:47:03.436Z,97740.31
2023-03-07T18:49:33.531Z,97738.56
2023-03-07T18:52:02.163Z,97736.03
2023-03-07T18:54:30.789Z,97735.22
2023-03-07T18:56:59.436Z,97734.44
2023-03-07T18:59:28.231Z,97734.44
2023-03-07T19:01:56.882Z,97734.44
2023-03-07T19:04:25.515Z,97736.16
2023-03-07T19:06:58.097Z,97741.22
2023-03-07T19:09:27.208Z,97736.16
2023-03-07T19:11:55.923Z,97743.75
2023-03-07T19:14:24.642Z,97741.34
2023-03-07T19:16:53.502Z,97749.88
2023-03-07T19:19:22.207Z,97749.88
2023-03-07T19:21:50.841Z,97759.25
2023-03-07T19:24:20.857Z,97744.94
2023-03-07T19:26:50.439Z,97761.00
2023-03-07T19:29:19.188Z,97758.44
2023-03-07T19:31:48.336Z,97764.31
2023-03-07T19:34:17.166Z,97768.50
2023-03-07T19:36:45.779Z,97766.88
2023-03-07T19:39:20.413Z,97774.47
2023-03-07T19:41:50.491Z,97771.03
2023-03-07T19:44:19.711Z,97776.09
2023-03-07T19:46:48.349Z,97776.91
2023-03-07T19:49:17.960Z,97780.28
2023-03-07T19:51:46.661Z,97777.72
2023-03-07T19:54:15.893Z,97776.91
2023-03-07T19:56:45.623Z,97775.19
2023-03-07T19:59:15.869Z,97780.28
2023-03-07T20:01:44.589Z,97782.81
2023-03-07T20:04:13.844Z,97784.41
2023-03-07T20:06:43.377Z,97783.59
2023-03-07T20:09:13.641Z,97786.16
2023-03-07T20:11:43.906Z,97786.16
2023-03-07T20:14:15.276Z,97784.41
2023-03-07T20:16:44.306Z,97781.19
2023-03-07T20:19:13.165Z,97788.69
2023-03-07T20:21:49.667Z,97785.34
2023-03-07T20:24:19.166Z,97791.34
2023-03-07T20:26:48.331Z,97797.22
2023-03-07T20:29:18.485Z,97792.97
2023-03-07T20:31:49.101Z,97802.19
2023-03-07T20:34:18.057Z,97802.19
2023-03-07T20:36:47.958Z,97790.31
2023-03-07T20:39:17.173Z,97800.34
2023-03-07T20:41:47.060Z,97803.81
2023-03-07T20:44:18.790Z,97812.22
2023-03-07T20:46:47.670Z,97807.97
2023-03-07T20:49:17.447Z,97812.13
2023-03-07T20:51:46.515Z,97806.22
2023-03-07T20:54:17.693Z,97812.13
2023-03-07T20:56:48.784Z,97812.13
2023-03-07T20:59:20.414Z,97807.97
2023-03-07T21:01:49.372Z,97813.84
2023-03-07T21:04:21.050Z,97821.59
2023-03-07T21:06:50.551Z,97821.59
2023-03-07T21:09:19.889Z,97815.72
2023-03-07T21:11:50.403Z,97831.75
2023-03-07T21:14:21.167Z,97828.41
2023-03-07T21:16:50.003Z,97830.94
2023-03-07T21:19:18.637Z,97836.81
2023-03-07T21:21:47.439Z,97830.81
2023-03-07T21:24:16.600Z,97836.72
2023-03-07T21:26:45.300Z,97828.28
2023-03-07T21:29:14.169Z,97829.91
2023-03-07T21:31:44.369Z,97833.38
2023-03-07T21:34:15.122Z,97835.00
2023-03-07T21:36:45.757Z,97835.00
2023-03-07T21:39:14.450Z,97828.28
2023-03-07T21:41:43.155Z,97835.91
2023-03-07T21:44:11.845Z,97833.38
2023-03-07T21:46:40.560Z,97830.81
2023-03-07T21:49:10.628Z,97830.00
2023-03-07T21:51:39.252Z,97837.63
2023-03-07T21:54:07.863Z,97838.56
2023-03-07T21:56:36.521Z,97835.09
2023-03-07T21:59:05.177Z,97831.75
2023-03-07T22:01:34.292Z,97827.47
2023-03-07T22:04:03.175Z,97846.06
2023-03-07T22:06:33.300Z,97837.63
2023-03-07T22:09:01.962Z,97835.09
2023-03-07T22:11:30.623Z,97841.00
2023-03-07T22:13:59.212Z,97842.69
2023-03-07T22:16:27.932Z,97842.63
2023-03-07T22:18:57.693Z,97850.25
2023-03-07T22:21:26.845Z,97835.78
2023-03-07T22:24:00.702Z,97841.66
2023-03-07T22:26:31.165Z,97842.63
2023-03-07T22:29:00.354Z,97846.75
2023-03-07T22:31:29.064Z,97861.19
2023-03-07T22:33:59.254Z,97856.09
2023-03-07T22:36:27.880Z,97857.72
2023-03-07T22:38:58.018Z,97856.91
2023-03-07T22:41:27.415Z,97854.25
2023-03-07T22:43:56.464Z,97856.78
2023-03-07T22:46:25.154Z,97864.41
2023-03-07T22:48:55.316Z,97855.19
2023-03-07T22:51:25.986Z,97862.94
2023-03-07T22:53:55.128Z,97873.91
2023-03-07T22:56:29.199Z,97875.50
2023-03-07T22:58:58.450Z,97873.91
2023-03-07T23:01:29.309Z,97880.72
2023-03-07T23:04:00.437Z,97884.16
2023-03-07T23:06:31.844Z,97880.00
2023-03-07T23:09:02.059Z,97887.50
2023-03-07T23:11:33.913Z,97879.88
2023-03-07T23:14:04.616Z,97886.72
2023-03-07T23:16:36.289Z,97883.34
2023-03-07T23:19:05.010Z,97883.34
2023-03-07T23:21:35.854Z,97884.16
2023-03-07T23:24:06.034Z,97884.16
2023-03-07T23:26:39.068Z,97880.72
2023-03-07T23:29:09.798Z,97881.63
2023-03-07T23:31:41.628Z,97875.63
2023-03-07T23:34:16.750Z,97887.50
2023-03-07T23:36:45.982Z,97888.34
2023-03-07T23:39:15.204Z,97892.47
2023-03-07T23:41:45.178Z,97886.59
2023-03-07T23:44:14.086Z,97880.72
2023-03-07T23:46:42.731Z,97887.50
2023-03-07T23:49:12.178Z,97884.97
2023-03-07T23:51:40.795Z,97890.06
2023-03-07T23:54:09.450Z,97881.50
2023-03-07T23:56:38.136Z,97889.94
2023-03-07T23:59:08.248Z,97889.94
